Decoded Metar for DTTD (REMADA in TUNISIA) (IATA:N/A) | Meteo·Mobile Aviation Weather
aviador You're here:

DTTD Decoded Metar

REMADA in TUNISIA
Report Time2018-09-26 04:00:00
UTC Time2018-09-26 05:02:42
Flight Rules unknown UNKNOWN
Wind080° at 04 kt
W.Decomp.*RWY 02: 2.1 kt HW 3.4 kt RCW
W.Rank080° ranks 1
Current wind is below 080° avg. (6.4)
VisibilityN/A
Phenomena:N/A
Clouds:N/A
Expected CloudBase > 1,200 ft AGL from Temp-Dew spread
CeilingNone
Temp23°C (ISA +10)
Dew Point20°C (83% RH)
QNH1020 hPa
Density Alt2,224 ft
Elevation988 ft
Report Wrong Elevation
Raw Report
DTTD 260400Z AUTO 08004KT 010V130 NCD 23/20 Q1020=

Extra information for DTTD:More info

Metar Taf Metar & Taf Last 4 Metars F.Rules Stats Wind Profile Meteogram Temp Stats Airport Information Weather charts Add Link Nearby VenuesMetar ALERT Operation Metar Decoded Social comments